Time;durP1;ratioP1;P1;durP2;ratioP2;P2;SDS_P1;SDS_P2;PMS_P1;PMS_P2;Temp;Humidity;BMP_temperature;BMP_pressure;BME280_temperature;BME280_humidity;BME280_pressure;Samples;Min_cycle;Max_cycle;Signal;HPM_P1;HPM_P2
2023/02/20 00:01:29;;;;;;;;;43.00;35.50;;;;;11.81;60.74;102579.34;4895889;29;45429;-72
2023/02/20 00:03:54;;;;;;;;;41.00;35.25;;;;;11.60;60.88;102556.34;4883374;29;45444;-72
2023/02/20 00:06:20;;;;;;;;;37.75;33.00;;;;;11.84;60.99;102601.66;4900611;29;45656;-72
2023/02/20 00:08:45;;;;;;;;;37.50;33.50;;;;;11.82;61.01;102586.47;4897456;29;45470;-72
2023/02/20 00:11:11;;;;;;;;;42.00;35.50;;;;;11.60;60.76;102548.31;4902060;29;45479;-72
2023/02/20 00:13:36;;;;;;;;;31.50;31.25;;;;;11.73;61.15;102587.44;4901532;29;45319;-72
2023/02/20 00:16:02;;;;;;;;;39.50;35.50;;;;;11.65;60.81;102562.53;4902238;29;45332;-72
2023/02/20 00:18:27;;;;;;;;;35.75;33.25;;;;;11.68;60.90;102573.22;4902232;29;45387;-72
2023/02/20 00:20:53;;;;;;;;;33.00;32.00;;;;;11.60;61.11;102567.91;4888311;29;46258;-72
2023/02/20 00:23:19;;;;;;;;;39.00;34.00;;;;;11.59;61.03;102571.47;4904955;29;45380;-72
2023/02/20 00:25:44;;;;;;;;;36.50;30.75;;;;;11.56;61.20;102557.25;4905271;29;45398;-72
2023/02/20 00:28:10;;;;;;;;;42.00;34.75;;;;;11.42;61.43;102535.97;4904677;29;45257;-72
2023/02/20 00:30:35;;;;;;;;;40.00;36.00;;;;;11.61;60.88;102566.13;4905238;29;45301;-72
2023/02/20 00:33:00;;;;;;;;;38.25;35.25;;;;;11.47;61.20;102543.03;4887230;28;45366;-72
2023/02/20 00:35:27;;;;;;;;;36.00;32.25;;;;;11.36;61.24;102522.63;4888417;29;45839;-72
2023/02/20 00:37:54;;;;;;;;;35.25;31.50;;;;;11.52;61.56;102566.22;4896644;29;45544;-72
2023/02/20 00:40:22;;;;;;;;;31.50;29.75;;;;;11.26;61.35;102528.06;4888161;29;45543;-72
2023/02/20 00:42:47;;;;;;;;;32.75;30.75;;;;;11.43;61.44;102562.69;4885816;29;45486;-72
2023/02/20 00:45:15;;;;;;;;;37.25;33.25;;;;;11.40;61.67;102562.72;4887875;29;45690;-72
2023/02/20 00:47:41;;;;;;;;;47.00;36.25;;;;;11.10;61.70;102518.34;4904755;29;45489;-72
2023/02/20 00:50:07;;;;;;;;;38.75;35.75;;;;;11.11;61.42;102520.16;4905129;29;45555;-72
2023/02/20 00:52:33;;;;;;;;;37.25;32.50;;;;;11.31;61.72;102565.47;4878996;29;45270;-72
2023/02/20 00:54:58;;;;;;;;;27.75;25.50;;;;;10.98;61.71;102511.31;4880605;29;45318;-72
2023/02/20 00:57:24;;;;;;;;;35.50;33.25;;;;;11.19;61.65;102531.66;4903557;28;45318;-72
2023/02/20 00:59:49;;;;;;;;;38.75;36.25;;;;;11.34;61.49;102562.75;4887649;29;47399;-72
2023/02/20 01:02:15;;;;;;;;;40.00;34.50;;;;;11.25;61.47;102554.81;4885654;29;45291;-72
2023/02/20 01:04:40;;;;;;;;;38.25;35.00;;;;;11.24;61.64;102550.34;4884662;29;45449;-72
2023/02/20 01:07:05;;;;;;;;;37.25;31.00;;;;;11.10;61.22;102529.94;4900052;29;45434;-72
2023/02/20 01:09:31;;;;;;;;;43.00;37.00;;;;;10.99;61.63;102510.38;4902535;29;45656;-72
2023/02/20 01:11:56;;;;;;;;;46.25;36.00;;;;;10.94;61.51;102526.47;4896798;29;45823;-72
2023/02/20 01:14:22;;;;;;;;;40.50;35.75;;;;;11.02;61.41;102533.56;4904618;28;45491;-72
2023/02/20 01:16:52;;;;;;;;;40.75;36.00;;;;;11.10;61.86;102555.78;4887387;29;45543;-72
2023/02/20 01:19:20;;;;;;;;;37.75;36.00;;;;;10.82;61.74;102526.50;4904770;29;45525;-72
2023/02/20 01:21:47;;;;;;;;;36.00;33.75;;;;;10.75;61.49;102501.63;4904032;29;45739;-72
2023/02/20 01:24:13;;;;;;;;;35.75;34.00;;;;;10.53;61.42;102476.81;4887590;29;45463;-72
2023/02/20 01:26:41;;;;;;;;;35.25;32.00;;;;;10.70;62.12;102502.56;4904035;29;45541;-72
2023/02/20 01:29:06;;;;;;;;;29.75;27.00;;;;;10.72;61.42;102523.00;4884045;29;47152;-72
2023/02/20 01:31:31;;;;;;;;;31.00;30.75;;;;;10.87;62.00;102551.41;4885135;29;45329;-72
2023/02/20 01:33:57;;;;;;;;;34.50;27.25;;;;;10.86;61.60;102549.66;4904268;29;45368;-72
2023/02/20 01:36:22;;;;;;;;;32.25;28.00;;;;;10.63;61.73;102514.16;4884393;29;45547;-72
2023/02/20 01:38:49;;;;;;;;;30.25;28.00;;;;;10.78;62.15;102551.47;4904007;29;46047;-72
2023/02/20 01:41:15;;;;;;;;;31.75;26.25;;;;;10.41;62.18;102492.88;4887030;29;45690;-72
2023/02/20 01:43:41;;;;;;;;;30.75;27.25;;;;;10.55;62.22;102519.53;4903970;29;45487;-72
2023/02/20 01:46:25;;;;;;;;;30.50;25.75;;;;;10.76;61.98;102555.94;4918524;28;45403;-72
2023/02/20 01:49:03;;;;;;;;;27.00;26.75;;;;;10.71;62.48;102539.94;4903991;29;45427;-72
2023/02/20 01:51:36;;;;;;;;;33.25;31.50;;;;;10.68;62.24;102550.63;4874631;29;45468;-72
2023/02/20 01:54:05;;;;;;;;;28.75;24.00;;;;;10.69;62.61;102559.53;4904102;29;45399;-72
2023/02/20 01:56:30;;;;;;;;;27.25;25.50;;;;;10.44;62.53;102524.00;4904111;29;45313;-72
2023/02/20 01:58:55;;;;;;;;;27.75;22.75;;;;;10.29;62.24;102499.13;4903476;29;46414;-72
2023/02/20 02:01:21;;;;;;;;;28.00;25.00;;;;;10.46;62.67;102532.91;4903988;29;45429;-72
2023/02/20 02:03:51;;;;;;;;;22.50;22.25;;;;;10.37;62.50;102525.81;4897811;29;45345;-72
2023/02/20 02:06:17;;;;;;;;;30.25;27.00;;;;;10.65;62.65;102572.00;4902090;29;45454;-72
2023/02/20 02:08:44;;;;;;;;;25.50;24.00;;;;;10.43;62.64;102538.28;4881778;29;47228;-72
2023/02/20 02:11:22;;;;;;;;;28.25;26.00;;;;;10.42;62.40;102528.47;4903904;29;45650;-72
2023/02/20 02:13:48;;;;;;;;;21.75;21.75;;;;;10.35;62.29;102517.81;4886502;29;45365;-72
2023/02/20 02:16:16;;;;;;;;;24.00;22.50;;;;;10.63;62.42;102556.91;4883770;29;45446;-72
2023/02/20 02:18:53;;;;;;;;;28.00;26.00;;;;;10.43;62.99;102522.25;4903627;29;46563;-72
2023/02/20 02:21:34;;;;;;;;;26.00;25.00;;;;;10.63;62.68;102540.88;4903554;29;45749;-72
2023/02/20 02:24:18;;;;;;;;;29.25;24.75;;;;;10.61;62.90;102532.88;4893284;29;45602;-72
2023/02/20 02:27:02;;;;;;;;;28.25;24.75;;;;;10.57;62.43;102537.34;4903129;29;45388;-72
2023/02/20 02:29:49;;;;;;;;;25.50;22.75;;;;;10.37;62.73;102508.03;4903093;29;46139;-72
2023/02/20 02:32:23;;;;;;;;;23.75;23.75;;;;;10.52;62.63;102535.56;4903505;29;45508;-71
2023/02/20 02:35:25;;;;;;;;;27.50;26.25;;;;;10.53;62.71;102529.34;4886296;29;45437;-72
2023/02/20 02:38:11;;;;;;;;;22.50;21.00;;;;;10.42;62.93;102509.78;4900006;29;45446;-72
2023/02/20 02:40:46;;;;;;;;;24.50;21.75;;;;;10.48;62.81;102517.78;4903143;29;46449;-72
2023/02/20 02:43:18;;;;;;;;;25.25;20.00;;;;;10.27;62.87;102481.31;4902800;28;45262;-72
2023/02/20 02:45:51;;;;;;;;;25.25;21.00;;;;;10.46;62.77;102515.09;4903439;29;45392;-72
2023/02/20 02:48:31;;;;;;;;;26.00;25.75;;;;;10.37;63.10;102494.69;4884150;29;45597;-72
2023/02/20 02:51:14;;;;;;;;;28.75;22.25;;;;;10.06;63.01;102435.16;4884328;29;46969;-72
2023/02/20 02:53:40;;;;;;;;;25.00;22.25;;;;;10.19;63.23;102457.34;4896627;29;45393;-72
2023/02/20 02:56:20;;;;;;;;;29.75;26.50;;;;;10.10;62.86;102450.22;4903181;29;45326;-72
2023/02/20 02:58:50;;;;;;;;;21.25;20.25;;;;;10.17;63.44;102461.78;4902792;29;45384;-72
2023/02/20 03:01:19;;;;;;;;;22.25;20.50;;;;;10.18;63.50;102460.91;4873598;29;48052;-72
2023/02/20 03:03:47;;;;;;;;;26.75;24.00;;;;;10.15;63.07;102461.78;4900656;29;45824;-72
2023/02/20 03:06:33;;;;;;;;;24.50;19.50;;;;;10.25;63.40;102475.97;4901612;29;45434;-72
2023/02/20 03:09:04;;;;;;;;;25.00;24.25;;;;;10.14;63.24;102452.03;4915217;28;45599;-72
2023/02/20 03:11:32;;;;;;;;;27.75;24.25;;;;;10.17;63.40;102448.44;4902972;29;45504;-72
2023/02/20 03:16:58;;;;;;;;;28.25;23.75;;;;;10.17;63.25;102448.44;4898929;29;45378;-72
2023/02/20 03:19:36;;;;;;;;;25.25;21.25;;;;;10.35;62.93;102480.44;4902966;29;45325;-72
2023/02/20 03:22:06;;;;;;;;;20.75;20.50;;;;;10.42;63.15;102499.09;4902258;29;46449;-72
2023/02/20 03:24:53;;;;;;;;;25.75;24.00;;;;;10.18;63.08;102459.09;4882193;29;45343;-72
2023/02/20 03:27:18;;;;;;;;;25.75;25.00;;;;;10.37;63.14;102486.66;4891723;29;45551;-72
2023/02/20 03:29:46;;;;;;;;;24.00;21.25;;;;;10.34;62.97;102472.41;4902301;29;45337;-72
2023/02/20 03:43:25;;;;;;;;;31.00;27.00;;;;;10.23;63.22;102447.53;4901762;29;45460;-72
2023/02/20 03:45:57;;;;;;;;;23.50;21.50;;;;;10.22;63.26;102448.44;4885384;29;45823;-72
2023/02/20 03:48:44;;;;;;;;;25.50;24.00;;;;;10.30;63.69;102457.28;4902485;29;45432;-72
2023/02/20 03:53:56;;;;;;;;;18.50;17.25;;;;;10.22;63.56;102456.44;4901556;29;45425;-72
2023/02/20 03:56:34;;;;;;;;;26.50;23.00;;;;;10.17;63.18;102452.00;4902216;29;45345;-72
2023/02/20 03:59:22;;;;;;;;;24.50;20.75;;;;;10.17;63.40;102451.09;4883509;29;45553;-72
2023/02/20 04:01:54;;;;;;;;;26.00;22.75;;;;;10.07;63.51;102436.03;4885144;29;45500;-72
2023/02/20 04:04:27;;;;;;;;;27.25;22.75;;;;;9.80;63.87;102396.06;4884503;29;46800;-72
2023/02/20 04:06:53;;;;;;;;;22.75;20.00;;;;;10.14;63.73;102448.44;4883138;29;45304;-72
2023/02/20 04:09:23;;;;;;;;;22.50;19.50;;;;;10.12;63.47;102444.91;4880280;29;45365;-72
2023/02/20 04:11:58;;;;;;;;;22.25;20.00;;;;;10.09;63.57;102436.91;4884568;29;45466;-72
2023/02/20 04:14:27;;;;;;;;;29.50;25.00;;;;;9.97;63.87;102422.72;4901076;29;45499;-72
2023/02/20 04:17:00;;;;;;;;;15.50;11.25;;;;;9.89;63.41;102407.59;4884329;29;45714;-72
2023/02/20 04:19:26;;;;;;;;;25.00;23.50;;;;;9.84;64.08;102391.66;4902402;29;45308;-72
2023/02/20 04:21:55;;;;;;;;;25.50;21.00;;;;;9.73;63.74;102382.78;4880874;29;45352;-72
2023/02/20 04:24:48;;;;;;;;;20.25;18.00;;;;;10.04;63.96;102434.28;4893389;29;46312;-72
2023/02/20 04:27:14;;;;;;;;;23.25;20.00;;;;;10.09;64.02;102445.81;4884553;29;45372;-72
2023/02/20 04:29:39;;;;;;;;;21.00;20.00;;;;;9.86;64.15;102404.97;4901658;29;45565;-72
2023/02/20 04:32:05;;;;;;;;;29.75;26.75;;;;;9.75;63.87;102381.00;4884795;29;45572;-72
2023/02/20 04:34:30;;;;;;;;;30.00;24.00;;;;;10.09;63.81;102436.91;4884340;29;47048;-72
2023/02/20 04:37:16;;;;;;;;;23.75;22.75;;;;;9.88;64.09;102416.53;4900629;29;45437;-72
2023/02/20 04:39:41;;;;;;;;;30.00;23.75;;;;;9.80;63.64;102396.06;4901715;29;45589;-72
2023/02/20 04:42:07;;;;;;;;;21.75;21.25;;;;;9.98;63.52;102424.47;4880661;29;45586;-72
2023/02/20 04:44:33;;;;;;;;;23.25;21.75;;;;;9.95;64.11;102418.28;4883989;29;47498;-72
2023/02/20 04:47:01;;;;;;;;;27.00;25.00;;;;;9.81;63.96;102397.84;4883104;29;45792;-72
2023/02/20 04:49:27;;;;;;;;;28.25;26.25;;;;;9.75;63.66;102394.31;4884750;29;45380;-72
2023/02/20 04:51:52;;;;;;;;;28.75;23.00;;;;;9.64;63.90;102386.38;4899042;29;45609;-72
2023/02/20 04:54:18;;;;;;;;;27.00;22.50;;;;;9.73;64.02;102399.66;4897933;29;46331;-72
2023/02/20 04:56:43;;;;;;;;;30.50;25.00;;;;;9.75;63.79;102399.66;4880906;29;45305;-72
2023/02/20 04:59:09;;;;;;;;;20.50;19.75;;;;;9.89;63.98;102424.53;4898825;29;45723;-72
2023/02/20 05:01:34;;;;;;;;;29.75;24.50;;;;;9.73;64.38;102388.13;4881361;29;45645;-72
2023/02/20 05:03:59;;;;;;;;;25.50;22.75;;;;;9.74;63.81;102397.88;4897333;29;45524;-72
2023/02/20 05:06:25;;;;;;;;;30.50;26.50;;;;;9.94;63.66;102436.06;4901926;29;45609;-72
2023/02/20 05:08:50;;;;;;;;;32.75;28.00;;;;;9.68;63.59;102397.91;4887536;29;45578;-72
2023/02/20 05:11:16;;;;;;;;;28.00;24.50;;;;;9.56;64.03;102377.50;4885735;29;45495;-72
2023/02/20 05:13:42;;;;;;;;;37.75;31.00;;;;;9.60;64.26;102392.56;4884675;29;47148;-72
2023/02/20 05:16:07;;;;;;;;;30.50;25.50;;;;;9.53;63.69;102385.50;4883589;29;45571;-72
2023/02/20 05:18:33;;;;;;;;;28.50;24.00;;;;;9.76;64.21;102423.66;4900582;29;45586;-72
2023/02/20 05:23:45;;;;;;;;;27.75;24.75;;;;;9.68;63.90;102427.25;4903178;29;45527;-72
2023/02/20 05:26:15;;;;;;;;;32.50;28.75;;;;;9.68;63.80;102435.22;4887351;29;45936;-72
2023/02/20 05:28:41;;;;;;;;;29.50;26.75;;;;;9.28;63.93;102358.88;4904062;29;45463;-72
2023/02/20 05:31:06;;;;;;;;;25.00;21.75;;;;;9.58;64.13;102415.69;4885156;29;45549;-72
2023/02/20 05:33:32;;;;;;;;;29.75;28.25;;;;;9.34;64.28;102373.94;4903833;29;46265;-72
2023/02/20 05:35:57;;;;;;;;;30.00;26.00;;;;;9.59;64.33;102418.34;4887335;29;45765;-72
2023/02/20 05:38:23;;;;;;;;;26.50;22.00;;;;;9.59;64.01;102420.16;4904150;29;45451;-72
2023/02/20 05:40:48;;;;;;;;;21.00;18.25;;;;;9.33;64.16;102381.06;4904322;29;45443;-72
2023/02/20 05:43:16;;;;;;;;;17.50;16.25;;;;;9.36;64.43;102389.06;4886632;29;46899;-72
2023/02/20 05:45:41;;;;;;;;;22.25;21.50;;;;;9.53;64.26;102426.34;4904220;29;45757;-72
2023/02/20 05:48:06;;;;;;;;;22.75;20.25;;;;;9.34;64.62;102392.59;4883969;29;45251;-71
2023/02/20 05:50:32;;;;;;;;;17.50;17.00;;;;;9.25;64.70;102373.09;4903608;29;45500;-72
2023/02/20 05:52:57;;;;;;;;;20.75;20.75;;;;;9.50;64.56;102422.81;4903749;29;46565;-72
2023/02/20 05:55:22;;;;;;;;;20.75;16.25;;;;;9.49;64.51;102419.25;4903395;29;45245;-71
2023/02/20 05:57:48;;;;;;;;;23.00;20.50;;;;;9.39;64.61;102405.06;4903747;29;46252;-72
2023/02/20 06:00:13;;;;;;;;;20.50;17.50;;;;;9.28;64.58;102388.19;4903986;29;45259;-72
2023/02/20 06:02:39;;;;;;;;;23.75;22.00;;;;;9.42;64.40;102417.47;4886733;29;48441;-72
2023/02/20 06:05:06;;;;;;;;;27.25;24.50;;;;;9.34;64.53;102408.59;4883748;29;45466;-72
2023/02/20 06:07:32;;;;;;;;;22.00;21.00;;;;;9.33;64.92;102410.38;4903662;29;45606;-72
2023/02/20 06:09:57;;;;;;;;;23.00;20.00;;;;;9.37;63.62;102419.25;4886668;29;45523;-72
2023/02/20 06:12:22;;;;;;;;;17.50;15.50;;;;;8.98;64.59;102362.44;4901604;29;47616;-72
2023/02/20 06:14:48;;;;;;;;;24.00;24.00;;;;;9.21;64.42;102410.41;4903659;29;46676;-72
2023/02/20 06:17:13;;;;;;;;;26.75;22.25;;;;;9.17;64.46;102413.94;4916165;28;45449;-72
2023/02/20 06:19:39;;;;;;;;;27.00;24.00;;;;;8.98;64.71;102381.97;4910527;28;45735;-71
2023/02/20 06:22:04;;;;;;;;;25.00;22.25;;;;;8.79;64.84;102340.25;4883112;29;47972;-72
2023/02/20 06:24:29;;;;;;;;;23.50;21.00;;;;;9.28;64.71;102425.47;4878166;29;45792;-72
2023/02/20 06:26:55;;;;;;;;;31.75;26.75;;;;;8.97;64.39;102373.97;4901492;29;45440;-72
2023/02/20 06:29:20;;;;;;;;;28.75;26.25;;;;;8.78;64.48;102344.66;4903418;29;45467;-72
2023/02/20 06:31:46;;;;;;;;;26.75;25.00;;;;;9.02;64.54;102383.75;4897635;29;46170;-72
2023/02/20 06:34:13;;;;;;;;;24.25;22.75;;;;;9.00;64.23;102372.19;4886396;29;45396;-72
2023/02/20 06:36:40;;;;;;;;;25.00;25.00;;;;;9.09;64.25;102387.31;4883122;29;45535;-72
2023/02/20 06:39:07;;;;;;;;;29.50;26.00;;;;;9.19;64.72;102404.19;4900089;29;45399;-71
2023/02/20 06:41:33;;;;;;;;;29.00;26.25;;;;;9.09;64.43;102389.97;4886219;29;47088;-72
2023/02/20 06:43:58;;;;;;;;;28.00;22.25;;;;;9.23;64.44;102417.47;4902666;29;45360;-72
2023/02/20 06:46:24;;;;;;;;;25.00;24.50;;;;;9.27;64.61;102432.59;4903297;28;45462;-72
2023/02/20 06:48:55;;;;;;;;;25.00;22.25;;;;;9.00;64.58;102388.16;4883048;29;46229;-72
2023/02/20 06:51:27;;;;;;;;;21.00;20.75;;;;;9.09;64.61;102411.28;4900769;29;45674;-71
2023/02/20 06:53:53;;;;;;;;;23.75;22.25;;;;;9.21;64.32;102435.25;4902597;29;45724;-72
2023/02/20 06:56:21;;;;;;;;;25.75;24.75;;;;;9.16;64.40;102437.03;4905685;28;46596;-66
2023/02/20 06:58:48;;;;;;;;;31.75;27.50;;;;;9.15;64.53;102437.03;4902499;29;45533;-72
2023/02/20 07:57:16;;;;;;;;;28.50;25.25;;;;;8.60;66.15;102430.69;5092189;23;45310;-85
2023/02/20 07:59:47;;;;;;;;;25.50;23.75;;;;;8.51;66.19;102418.25;4896108;29;47293;-86
2023/02/20 08:02:15;;;;;;;;;34.25;29.25;;;;;8.38;66.10;102408.44;4913023;28;45977;-86
2023/02/20 08:04:41;;;;;;;;;29.50;26.00;;;;;8.39;65.83;102407.56;4910393;28;45419;-84
2023/02/20 08:07:07;;;;;;;;;31.25;24.50;;;;;8.51;66.09;102436.91;4923245;28;45363;-85
2023/02/20 08:09:35;;;;;;;;;27.50;27.50;;;;;8.16;65.92;102381.75;4917056;28;47538;-85
2023/02/20 08:12:01;;;;;;;;;27.00;25.25;;;;;8.22;66.01;102387.97;4912671;28;45651;-84
2023/02/20 08:14:27;;;;;;;;;26.75;25.50;;;;;8.31;66.52;102418.16;4905584;28;45282;-84
2023/02/20 08:16:55;;;;;;;;;33.50;27.75;;;;;8.56;66.36;102455.56;4917961;28;45525;-84
2023/02/20 08:19:22;;;;;;;;;26.25;24.00;;;;;8.65;66.43;102478.63;4915936;28;45391;-85
2023/02/20 08:21:48;;;;;;;;;27.25;24.75;;;;;8.40;66.82;102427.06;4917502;28;45368;-87
2023/02/20 08:24:13;;;;;;;;;30.00;28.50;;;;;8.55;66.80;102452.88;4911351;28;46000;-86
2023/02/20 08:26:44;;;;;;;;;25.00;20.50;;;;;8.47;66.57;102440.44;4914559;28;45323;-85
2023/02/20 08:29:11;;;;;;;;;25.50;21.50;;;;;8.46;66.77;102443.97;4924673;28;45372;-85
2023/02/20 08:31:37;;;;;;;;;31.75;27.25;;;;;8.38;67.03;102421.72;4919821;28;45347;-84
2023/02/20 08:34:02;;;;;;;;;28.75;25.25;;;;;8.62;67.36;102458.25;4914531;28;45261;-84
2023/02/20 08:36:28;;;;;;;;;28.75;25.00;;;;;8.55;67.09;102445.78;4913912;28;45551;-84
2023/02/20 08:38:53;;;;;;;;;31.00;26.00;;;;;8.63;67.41;102457.34;4913110;28;46341;-84
2023/02/20 08:41:19;;;;;;;;;25.50;23.00;;;;;8.60;67.24;102446.66;4918859;28;45652;-84
2023/02/20 08:43:44;;;;;;;;;27.25;22.50;;;;;8.47;67.39;102432.47;4924012;28;45439;-84
2023/02/20 08:46:10;;;;;;;;;31.75;26.00;;;;;8.64;67.53;102451.13;4920572;28;45373;-84
2023/02/20 08:48:36;;;;;;;;;29.00;24.25;;;;;8.83;67.27;102469.81;4910573;28;45472;-85
2023/02/20 08:51:01;;;;;;;;;28.50;26.75;;;;;8.49;67.25;102413.84;4914484;28;45404;-84
2023/02/20 08:53:27;;;;;;;;;28.00;24.75;;;;;8.49;67.43;102406.72;4909976;28;45296;-84
2023/02/20 08:55:52;;;;;;;;;33.50;27.50;;;;;8.57;68.00;102420.06;4912032;28;45816;-85
2023/02/20 08:58:24;;;;;;;;;25.25;25.25;;;;;8.77;68.18;102448.50;4911152;28;46936;-85
2023/02/20 09:00:50;;;;;;;;;30.00;26.50;;;;;8.61;67.42;102415.66;4917788;28;45383;-85
2023/02/20 09:03:16;;;;;;;;;28.00;28.00;;;;;8.69;68.13;102424.53;4915243;28;45544;-82
2023/02/20 09:05:42;;;;;;;;;28.25;26.00;;;;;8.68;68.19;102412.97;4919145;28;45345;-84
2023/02/20 09:08:08;;;;;;;;;28.75;25.00;;;;;8.99;68.48;102460.09;4918583;28;47561;-84
2023/02/20 09:10:34;;;;;;;;;29.00;25.75;;;;;9.02;68.31;102454.75;4908018;28;45333;-85
2023/02/20 09:13:00;;;;;;;;;25.00;24.25;;;;;9.00;68.20;102453.88;4918980;28;45404;-86
2023/02/20 09:15:26;;;;;;;;;30.50;24.75;;;;;8.75;68.09;102400.56;4916426;28;45403;-85
2023/02/20 09:17:52;;;;;;;;;23.50;20.75;;;;;8.85;68.50;102402.38;4915748;28;47101;-87
2023/02/20 09:20:26;;;;;;;;;21.25;20.25;;;;;9.06;68.29;102429.91;4920978;28;45524;-76
2023/02/20 09:22:56;;;;;;;;;34.50;32.25;;;;;9.05;68.49;102425.47;4931898;28;45343;-82
2023/02/20 09:25:22;;;;;;;;;31.00;28.50;;;;;9.12;68.66;102427.28;4915670;28;45353;-80
2023/02/20 09:27:47;;;;;;;;;38.50;29.25;;;;;9.39;68.54;102454.81;4921463;28;45445;-84
2023/02/20 09:30:18;;;;;;;;;29.00;23.25;;;;;9.38;68.93;102445.03;4914065;28;45330;-82
2023/02/20 09:32:46;;;;;;;;;27.75;27.75;;;;;9.55;68.63;102458.34;4916719;28;45442;-88
2023/02/20 09:35:16;;;;;;;;;30.00;27.75;;;;;9.60;68.92;102457.44;4906365;28;46675;-81
2023/02/20 09:37:42;;;;;;;;;31.75;26.00;;;;;9.55;69.10;102440.56;4907539;28;47446;-79
2023/02/20 09:40:08;;;;;;;;;33.50;27.75;;;;;9.72;68.59;102458.31;4914986;28;45647;-83
2023/02/20 09:42:38;;;;;;;;;31.50;26.00;;;;;9.67;68.93;102431.66;4922563;28;45325;-83
2023/02/20 09:45:23;;;;;;;;;29.25;26.00;;;;;9.75;69.17;102434.31;4911249;28;45477;-83
2023/02/20 09:47:58;;;;;;;;;34.75;31.00;;;;;9.98;68.99;102447.63;4921996;28;46305;-83
2023/02/20 09:50:36;;;;;;;;;23.75;21.00;;;;;9.93;68.98;102428.94;4918323;28;45696;-83
2023/02/20 09:53:29;;;;;;;;;29.50;28.00;;;;;10.15;68.83;102450.22;4911779;28;45277;-83
2023/02/20 09:55:56;;;;;;;;;22.00;19.75;;;;;10.19;68.72;102438.66;4907473;28;45479;-84
2023/02/20 09:58:43;;;;;;;;;30.50;25.75;;;;;10.33;69.02;102450.19;4898663;28;47167;-83
2023/02/20 10:01:14;;;;;;;;;38.75;31.75;;;;;10.42;68.61;102449.25;4924407;28;45712;-82
2023/02/20 10:03:56;;;;;;;;;27.25;24.25;;;;;10.50;68.60;102449.22;4911661;28;45420;-83
2023/02/20 10:06:25;;;;;;;;;33.50;28.50;;;;;10.39;68.76;102414.59;4915048;28;45324;-84
2023/02/20 10:08:53;;;;;;;;;31.50;27.00;;;;;10.66;68.52;102450.03;4917161;28;45214;-80
2023/02/20 10:11:47;;;;;;;;;30.75;27.75;;;;;10.72;68.42;102444.66;4916202;28;45621;-82
2023/02/20 10:14:49;;;;;;;;;30.25;27.25;;;;;10.70;67.88;102423.28;4910571;28;45419;-82
2023/02/20 10:17:28;;;;;;;;;26.25;23.75;;;;;10.77;67.90;102417.94;4916336;28;45476;-83
2023/02/20 10:20:11;;;;;;;;;27.50;25.25;;;;;10.88;68.26;102421.41;4909453;28;47995;-82
2023/02/20 10:23:18;;;;;;;;;34.50;29.75;;;;;11.07;67.90;102433.72;4925144;28;45299;-82
2023/02/20 10:25:49;;;;;;;;;30.75;25.25;;;;;11.12;67.67;102434.59;4867596;28;45627;-81
2023/02/20 10:28:17;;;;;;;;;18.00;16.25;;;;;11.14;68.26;102418.53;4910765;28;45395;-81
2023/02/20 10:30:56;;;;;;;;;15.25;11.75;;;;;11.30;68.25;102433.56;4910200;28;47728;-81
2023/02/20 10:33:43;;;;;;;;;11.75;10.75;;;;;11.34;68.42;102434.41;4909700;28;45352;-81
2023/02/20 10:36:25;;;;;;;;;10.75;10.25;;;;;11.37;68.34;102420.16;4914347;28;45442;-83
2023/02/20 10:39:15;;;;;;;;;9.25;9.25;;;;;11.48;68.09;102432.50;4911014;28;45348;-83
2023/02/20 10:42:08;;;;;;;;;5.00;3.75;;;;;11.62;67.92;102439.53;4925813;28;48683;-83
2023/02/20 10:44:42;;;;;;;;;10.25;6.50;;;;;11.70;67.68;102434.97;4919691;28;45933;-82
2023/02/20 10:47:25;;;;;;;;;13.25;11.00;;;;;11.78;67.47;102441.16;4918885;28;45361;-82
2023/02/20 10:50:17;;;;;;;;;11.75;11.75;;;;;11.83;66.69;102430.41;4921962;28;45360;-81
2023/02/20 10:53:01;;;;;;;;;4.75;4.75;;;;;11.78;66.72;102411.72;4914281;28;46016;-82
2023/02/20 10:55:26;;;;;;;;;16.25;14.75;;;;;11.99;66.48;102441.84;4920835;28;45576;-82
2023/02/20 10:58:02;;;;;;;;;15.25;13.75;;;;;12.04;66.18;102445.34;4916985;28;45367;-81
2023/02/20 11:00:54;;;;;;;;;19.25;16.00;;;;;12.05;66.35;102434.63;4914456;28;45493;-82
2023/02/20 11:03:26;;;;;;;;;21.25;20.25;;;;;12.04;66.05;102415.91;4921034;28;46095;-81
2023/02/20 11:05:56;;;;;;;;;14.00;13.25;;;;;12.17;66.07;102433.59;4920130;28;45374;-81
2023/02/20 11:08:21;;;;;;;;;14.00;12.00;;;;;12.02;65.63;102405.22;4918037;28;45770;-81
2023/02/20 11:10:48;;;;;;;;;13.75;13.75;;;;;12.16;65.19;102406.84;4918891;28;45249;-80
2023/02/20 11:13:19;;;;;;;;;19.00;17.50;;;;;12.29;65.21;102421.84;4907865;28;46515;-80
2023/02/20 11:15:47;;;;;;;;;18.25;14.50;;;;;12.36;64.85;102425.34;4921226;28;45556;-80
2023/02/20 11:18:33;;;;;;;;;13.25;13.25;;;;;12.39;64.94;102419.94;4913633;28;45411;-80
2023/02/20 11:20:59;;;;;;;;;21.00;17.50;;;;;12.41;64.89;102412.78;4912401;28;45604;-79
2023/02/20 11:23:34;;;;;;;;;16.75;15.00;;;;;12.46;64.95;102405.56;4917783;28;46502;-80
2023/02/20 11:26:19;;;;;;;;;13.00;11.00;;;;;12.52;64.73;102407.28;4919463;28;45590;-81
2023/02/20 11:28:53;;;;;;;;;21.50;19.00;;;;;12.48;64.38;102397.50;4904773;28;45436;-81
2023/02/20 11:31:20;;;;;;;;;18.00;16.00;;;;;12.40;64.51;102377.06;4914349;28;45722;-81
2023/02/20 11:33:48;;;;;;;;;15.25;14.50;;;;;12.54;64.60;102392.06;4925234;28;47378;-81
2023/02/20 11:36:21;;;;;;;;;19.00;15.75;;;;;12.53;64.29;102379.56;4920892;28;45645;-81
2023/02/20 11:38:55;;;;;;;;;19.25;17.25;;;;;12.67;64.07;102395.47;4903341;28;45487;-81
2023/02/20 11:41:30;;;;;;;;;17.75;17.25;;;;;12.70;63.97;102390.94;4907698;28;45870;-81
2023/02/20 11:44:05;;;;;;;;;19.00;17.00;;;;;12.72;63.86;102380.19;4916940;28;45633;-81
2023/02/20 11:46:30;;;;;;;;;16.50;15.50;;;;;12.70;63.72;102377.53;4912349;28;45559;-81
2023/02/20 11:48:55;;;;;;;;;14.50;14.50;;;;;12.77;63.43;102381.00;4911384;28;45508;-81
2023/02/20 11:51:40;;;;;;;;;16.50;14.75;;;;;12.76;63.39;102373.88;4916654;28;45577;-81
2023/02/20 11:54:15;;;;;;;;;19.50;15.25;;;;;12.81;63.44;102382.72;4906587;28;47270;-81
2023/02/20 11:57:19;;;;;;;;;22.50;16.50;;;;;12.86;63.18;102380.84;4920498;28;46093;-81
2023/02/20 11:59:49;;;;;;;;;18.25;17.00;;;;;12.76;63.17;102355.13;4910702;28;45282;-81
2023/02/20 12:02:14;;;;;;;;;15.25;15.25;;;;;12.86;63.13;102370.13;4915778;28;45440;-81
2023/02/20 12:04:44;;;;;;;;;17.25;15.25;;;;;12.89;62.97;102366.53;4920093;28;45683;-81
2023/02/20 12:07:26;;;;;;;;;19.50;17.50;;;;;12.84;63.18;102345.16;4910504;28;45320;-81
2023/02/20 12:09:56;;;;;;;;;22.00;18.00;;;;;12.81;62.53;102334.50;4916091;28;45283;-81
2023/02/20 12:12:22;;;;;;;;;15.25;14.25;;;;;12.83;63.00;102330.00;4905581;28;45466;-80
2023/02/20 12:14:51;;;;;;;;;18.25;16.75;;;;;12.94;62.97;102349.47;4905266;28;45551;-81
2023/02/20 12:17:52;;;;;;;;;17.50;16.25;;;;;12.95;62.93;102335.16;4932739;28;45365;-81
2023/02/20 12:20:24;;;;;;;;;13.25;10.50;;;;;12.97;62.90;102340.50;4905277;28;45394;-81
2023/02/20 12:23:16;;;;;;;;;21.00;18.75;;;;;12.92;62.94;102331.66;4913050;28;45370;-81
2023/02/20 12:25:58;;;;;;;;;20.50;19.75;;;;;12.86;62.69;102321.91;4914840;28;45365;-80
2023/02/20 12:28:33;;;;;;;;;19.25;18.25;;;;;12.97;62.98;102329.78;4918484;28;45812;-80
2023/02/20 12:31:24;;;;;;;;;18.50;18.50;;;;;12.89;62.86;102304.91;4911788;28;45426;-78
2023/02/20 12:34:02;;;;;;;;;15.50;14.50;;;;;12.99;62.70;102322.59;4925974;28;45416;-78
2023/02/20 12:36:27;;;;;;;;;23.25;21.00;;;;;12.99;62.75;102306.50;4911732;28;48576;-79
2023/02/20 12:39:03;;;;;;;;;17.50;16.50;;;;;12.90;62.45;102288.78;4920008;28;45721;-77
2023/02/20 12:42:09;;;;;;;;;18.50;18.50;;;;;13.01;62.30;102304.66;4917530;28;45471;-78
2023/02/20 12:44:41;;;;;;;;;18.00;16.00;;;;;13.01;62.49;102299.31;4910494;28;45697;-78